Time;durP1;ratioP1;P1;durP2;ratioP2;P2;SDS_P1;SDS_P2;PMS_P1;PMS_P2;Temp;Humidity;BMP_temperature;BMP_pressure;BME280_temperature;BME280_humidity;BME280_pressure;Samples;Min_cycle;Max_cycle;Signal;HPM_P1;HPM_P2
2022/08/31 00:05:44;;;;;;;1.33;0.80;;;15.50;97.30;;;;;;5020706;28;20220;-75
2022/08/31 00:08:16;;;;;;;4.20;1.13;;;15.40;97.50;;;;;;5031051;28;20189;-75
2022/08/31 00:10:45;;;;;;;1.73;1.10;;;15.40;97.60;;;;;;5012791;28;20606;-74
2022/08/31 00:13:12;;;;;;;1.50;0.90;;;15.30;97.90;;;;;;5018753;28;20227;-74
2022/08/31 00:15:40;;;;;;;1.58;0.80;;;15.30;98.10;;;;;;5013303;28;20288;-75
2022/08/31 00:18:07;;;;;;;3.72;0.98;;;15.30;98.30;;;;;;5012377;28;20205;-74
2022/08/31 00:20:35;;;;;;;1.30;0.90;;;15.20;98.60;;;;;;5012259;28;20251;-74
2022/08/31 00:23:05;;;;;;;1.40;1.00;;;15.20;98.80;;;;;;5012646;28;20240;-75
2022/08/31 00:25:36;;;;;;;1.80;0.90;;;15.20;99.00;;;;;;5018593;28;20213;-75
2022/08/31 00:28:05;;;;;;;4.25;0.88;;;15.10;99.30;;;;;;5014589;28;20296;-75
2022/08/31 00:30:33;;;;;;;2.95;1.92;;;15.10;99.50;;;;;;5015106;28;20232;-75
2022/08/31 00:33:00;;;;;;;0.98;0.65;;;15.10;99.70;;;;;;5013139;28;20284;-75
2022/08/31 00:35:29;;;;;;;5.10;1.55;;;15.10;99.80;;;;;;5014217;28;20856;-75
2022/08/31 00:37:56;;;;;;;2.00;0.80;;;15.00;99.90;;;;;;5013887;28;20211;-73
2022/08/31 00:40:26;;;;;;;1.10;0.70;;;15.00;99.90;;;;;;5019241;28;20320;-73
2022/08/31 00:42:53;;;;;;;2.75;0.85;;;15.00;99.90;;;;;;5012207;28;20259;-75
2022/08/31 00:45:21;;;;;;;2.95;0.90;;;15.00;99.90;;;;;;5012312;28;20284;-76
2022/08/31 00:47:48;;;;;;;1.17;0.70;;;14.90;99.90;;;;;;5016122;28;20265;-75
2022/08/31 00:50:18;;;;;;;1.67;1.00;;;14.90;99.90;;;;;;5021817;28;20655;-75
2022/08/31 00:52:48;;;;;;;3.20;1.00;;;14.90;99.90;;;;;;5003878;28;20561;-75
2022/08/31 00:55:20;;;;;;;1.38;0.80;;;14.90;99.90;;;;;;5017221;28;20621;-75
2022/08/31 00:57:53;;;;;;;3.80;1.05;;;14.90;99.90;;;;;;5009361;28;20197;-75
2022/08/31 01:00:24;;;;;;;2.95;1.35;;;14.80;99.90;;;;;;5017121;28;20679;-75
2022/08/31 01:02:51;;;;;;;1.42;0.70;;;14.80;99.90;;;;;;5016115;28;20229;-74
2022/08/31 01:05:19;;;;;;;1.50;0.80;;;14.90;99.90;;;;;;5023030;28;20232;-75
2022/08/31 01:07:49;;;;;;;1.90;1.05;;;14.70;99.90;;;;;;5016530;28;20205;-75
2022/08/31 01:10:18;;;;;;;1.05;0.90;;;14.70;99.90;;;;;;5027738;28;20197;-76
2022/08/31 01:12:47;;;;;;;1.17;0.75;;;14.70;99.90;;;;;;5009521;28;20201;-74
2022/08/31 01:15:16;;;;;;;1.42;0.82;;;14.70;99.90;;;;;;5006347;28;20539;-75
2022/08/31 01:17:45;;;;;;;1.67;0.80;;;14.70;99.90;;;;;;5015815;28;20237;-73
2022/08/31 01:20:21;;;;;;;1.40;0.80;;;14.60;99.90;;;;;;5008435;28;20217;-75
2022/08/31 01:23:02;;;;;;;5.72;0.90;;;14.60;99.90;;;;;;5012961;28;20263;-75
2022/08/31 01:25:29;;;;;;;1.10;0.85;;;14.50;99.90;;;;;;5014962;28;20611;-75
2022/08/31 01:27:57;;;;;;;1.35;0.82;;;14.50;99.90;;;;;;5010896;28;20667;-75
2022/08/31 01:30:26;;;;;;;2.85;0.95;;;14.50;99.90;;;;;;5012451;28;20233;-75
2022/08/31 01:32:53;;;;;;;3.63;1.27;;;14.40;99.90;;;;;;5011378;28;20645;-75
2022/08/31 01:35:20;;;;;;;1.40;0.90;;;14.40;99.90;;;;;;5009010;28;20216;-75
2022/08/31 01:37:48;;;;;;;1.30;1.02;;;14.40;99.90;;;;;;5018205;28;20228;-75
2022/08/31 01:40:16;;;;;;;1.27;0.88;;;14.30;99.90;;;;;;5015021;28;20299;-76
2022/08/31 01:42:45;;;;;;;1.33;1.10;;;14.30;99.90;;;;;;5009095;28;20275;-74
2022/08/31 01:45:13;;;;;;;1.63;1.08;;;14.40;99.90;;;;;;5011771;28;20284;-74
2022/08/31 01:47:40;;;;;;;1.73;0.95;;;14.30;99.90;;;;;;5015143;28;20734;-74
2022/08/31 01:50:08;;;;;;;2.65;1.10;;;14.30;99.90;;;;;;5016395;28;20288;-74
2022/08/31 01:52:37;;;;;;;1.10;0.73;;;14.40;99.90;;;;;;5015121;28;20726;-75
2022/08/31 01:55:05;;;;;;;1.27;1.00;;;14.40;99.90;;;;;;5015145;28;20249;-74
2022/08/31 01:57:34;;;;;;;2.08;1.00;;;14.30;99.90;;;;;;5017034;28;20206;-75
2022/08/31 02:00:01;;;;;;;1.45;1.20;;;14.30;99.90;;;;;;5026732;28;20209;-75
2022/08/31 02:02:28;;;;;;;2.45;0.88;;;14.30;99.90;;;;;;5020661;28;20248;-74
2022/08/31 02:04:57;;;;;;;2.13;0.90;;;14.20;99.90;;;;;;5017683;28;20220;-75
2022/08/31 02:07:25;;;;;;;2.00;0.80;;;14.20;99.90;;;;;;5017195;28;20271;-74
2022/08/31 02:09:53;;;;;;;1.55;1.35;;;14.30;99.90;;;;;;5016312;28;20193;-74
2022/08/31 02:12:20;;;;;;;1.05;0.73;;;14.20;99.90;;;;;;5017775;28;20204;-74
2022/08/31 02:14:50;;;;;;;2.05;1.00;;;14.20;99.90;;;;;;5016001;28;20727;-73
2022/08/31 02:17:17;;;;;;;1.55;0.90;;;14.20;99.90;;;;;;5014334;28;20674;-75
2022/08/31 02:19:44;;;;;;;4.13;0.95;;;14.20;99.90;;;;;;5013980;28;20574;-74
2022/08/31 02:22:11;;;;;;;1.80;1.10;;;14.20;99.90;;;;;;5013250;28;20316;-75
2022/08/31 02:24:38;;;;;;;1.95;1.08;;;14.10;99.90;;;;;;5010347;28;20705;-75
2022/08/31 02:27:07;;;;;;;3.67;0.90;;;14.10;99.90;;;;;;5012994;28;20552;-74
2022/08/31 02:29:35;;;;;;;2.58;1.05;;;14.10;99.90;;;;;;5005766;28;20619;-74
2022/08/31 02:32:04;;;;;;;1.80;1.30;;;14.00;99.90;;;;;;5014462;28;20292;-74
2022/08/31 02:34:31;;;;;;;1.42;1.33;;;13.90;99.90;;;;;;5010457;28;20635;-75
2022/08/31 02:36:58;;;;;;;11.50;1.40;;;13.90;99.90;;;;;;5009311;28;20205;-74
2022/08/31 02:39:25;;;;;;;1.58;1.10;;;13.80;99.90;;;;;;5024532;28;20258;-74
2022/08/31 02:41:53;;;;;;;1.58;1.40;;;13.80;99.90;;;;;;5026504;28;20209;-74
2022/08/31 02:44:20;;;;;;;1.52;1.17;;;13.80;99.90;;;;;;5016010;28;20265;-74
2022/08/31 02:46:47;;;;;;;1.75;1.15;;;13.80;99.90;;;;;;5014874;28;20291;-73
2022/08/31 02:49:15;;;;;;;1.77;1.30;;;13.80;99.90;;;;;;5008670;28;20667;-73
2022/08/31 02:51:44;;;;;;;3.15;1.27;;;13.70;99.90;;;;;;5003641;28;20194;-74
2022/08/31 02:54:12;;;;;;;2.88;1.45;;;13.70;99.90;;;;;;5014119;28;20250;-73
2022/08/31 02:56:39;;;;;;;1.90;1.35;;;13.70;99.90;;;;;;5014045;28;20657;-74
2022/08/31 02:59:06;;;;;;;3.05;1.50;;;13.60;99.90;;;;;;5014895;28;20205;-74
2022/08/31 03:01:33;;;;;;;2.38;1.30;;;13.60;99.90;;;;;;5012822;28;20737;-74
2022/08/31 03:04:01;;;;;;;4.72;1.27;;;13.60;99.90;;;;;;5008659;28;20310;-73
2022/08/31 03:06:30;;;;;;;2.30;1.77;;;13.50;99.90;;;;;;5003682;28;20208;-74
2022/08/31 03:08:59;;;;;;;1.65;1.30;;;13.50;99.90;;;;;;5018032;28;20196;-75
2022/08/31 03:11:26;;;;;;;6.47;1.95;;;13.50;99.90;;;;;;5014223;28;20284;-75
2022/08/31 03:13:53;;;;;;;2.55;1.10;;;13.40;99.90;;;;;;5003382;28;20307;-75
2022/08/31 03:16:20;;;;;;;1.67;1.58;;;13.40;99.90;;;;;;5007678;28;20288;-75
2022/08/31 03:18:48;;;;;;;2.85;1.63;;;13.30;99.90;;;;;;5013006;28;20292;-75
2022/08/31 03:21:16;;;;;;;1.63;1.25;;;13.30;99.90;;;;;;5003053;28;20221;-75
2022/08/31 03:23:44;;;;;;;1.50;1.23;;;13.30;99.90;;;;;;5010452;28;20256;-75
2022/08/31 03:26:11;;;;;;;5.35;1.02;;;13.30;99.90;;;;;;5007971;28;20283;-76
2022/08/31 03:28:38;;;;;;;1.38;1.00;;;13.20;99.90;;;;;;5013667;28;20259;-75
2022/08/31 03:31:06;;;;;;;2.20;1.48;;;13.20;99.90;;;;;;5012207;28;20267;-75
2022/08/31 03:33:34;;;;;;;3.33;1.50;;;13.10;99.90;;;;;;5015115;28;20262;-75
2022/08/31 03:36:03;;;;;;;1.77;1.35;;;13.10;99.90;;;;;;5006736;28;20297;-75
2022/08/31 03:38:31;;;;;;;1.52;1.30;;;13.10;99.90;;;;;;5013602;28;20213;-75
2022/08/31 03:41:01;;;;;;;2.33;1.40;;;13.10;99.90;;;;;;5017072;28;20209;-75
2022/08/31 03:43:28;;;;;;;1.77;1.30;;;13.10;99.90;;;;;;5017413;28;20221;-75
2022/08/31 03:45:55;;;;;;;2.30;1.50;;;13.10;99.90;;;;;;5024206;28;20292;-74
2022/08/31 03:48:25;;;;;;;1.50;1.33;;;13.00;99.90;;;;;;5026363;28;20212;-74
2022/08/31 03:50:53;;;;;;;6.82;2.03;;;13.00;99.90;;;;;;5027595;28;20241;-74
2022/08/31 03:53:20;;;;;;;3.35;1.85;;;13.00;99.90;;;;;;5028899;28;20250;-74
2022/08/31 03:55:47;;;;;;;1.83;1.63;;;12.90;99.90;;;;;;5026114;28;20199;-74
2022/08/31 03:58:15;;;;;;;1.90;1.70;;;12.90;99.90;;;;;;5015577;28;20287;-74
2022/08/31 04:00:43;;;;;;;2.08;1.60;;;12.90;99.90;;;;;;5012507;28;20209;-74
2022/08/31 04:03:12;;;;;;;3.08;2.03;;;12.80;99.90;;;;;;5013430;28;20317;-74
2022/08/31 04:05:43;;;;;;;1.85;1.40;;;12.80;99.90;;;;;;5015396;28;20213;-75
2022/08/31 04:08:12;;;;;;;4.95;1.50;;;12.80;99.90;;;;;;5010068;28;20203;-78
2022/08/31 04:10:39;;;;;;;2.20;2.00;;;12.70;99.90;;;;;;5021050;28;20297;-74
2022/08/31 04:13:09;;;;;;;2.20;2.00;;;12.70;99.90;;;;;;5003794;28;20619;-75
2022/08/31 04:15:38;;;;;;;2.80;1.67;;;12.60;99.90;;;;;;5013078;28;20213;-75
2022/08/31 04:18:06;;;;;;;4.55;1.60;;;12.50;99.90;;;;;;5015899;28;20655;-74
2022/08/31 04:20:34;;;;;;;2.42;2.13;;;12.50;99.90;;;;;;5019448;28;20661;-74
2022/08/31 04:23:01;;;;;;;4.85;1.70;;;12.40;99.90;;;;;;5017322;28;20204;-74
2022/08/31 04:25:28;;;;;;;9.93;4.65;;;12.40;99.90;;;;;;5029322;28;20310;-74
2022/08/31 04:27:57;;;;;;;2.08;1.80;;;12.40;99.90;;;;;;5017173;28;20305;-75
2022/08/31 04:30:24;;;;;;;2.80;2.00;;;12.40;99.90;;;;;;5022312;28;20210;-75
2022/08/31 04:32:53;;;;;;;2.15;1.80;;;12.40;99.90;;;;;;5024010;28;20202;-74
2022/08/31 04:35:20;;;;;;;4.38;1.80;;;12.40;99.90;;;;;;5017803;28;20212;-75
2022/08/31 04:37:47;;;;;;;3.55;1.85;;;12.40;99.90;;;;;;5022218;28;20238;-74
2022/08/31 04:40:19;;;;;;;2.60;2.40;;;12.40;99.90;;;;;;5017798;28;20204;-75
2022/08/31 04:42:50;;;;;;;5.28;1.90;;;12.40;99.90;;;;;;5013367;28;20207;-76
2022/08/31 04:45:17;;;;;;;1.95;1.73;;;12.40;99.90;;;;;;5017829;28;20203;-73
2022/08/31 04:47:44;;;;;;;3.65;2.70;;;12.40;99.90;;;;;;5020647;28;20238;-74
2022/08/31 04:50:15;;;;;;;1.83;1.60;;;12.50;99.90;;;;;;5015821;28;20653;-75
2022/08/31 04:52:43;;;;;;;2.90;2.20;;;12.50;99.90;;;;;;5008252;28;20204;-73
2022/08/31 04:55:12;;;;;;;3.25;1.55;;;12.60;99.90;;;;;;5017045;28;20648;-75
2022/08/31 04:57:39;;;;;;;3.05;1.80;;;12.70;99.90;;;;;;5015920;28;20236;-75
2022/08/31 05:00:15;;;;;;;2.75;2.05;;;12.90;99.90;;;;;;5017548;28;20229;-73
2022/08/31 05:02:42;;;;;;;4.72;1.95;;;13.10;99.90;;;;;;5013511;28;20702;-75
2022/08/31 05:05:10;;;;;;;4.00;2.45;;;13.40;99.90;;;;;;5015408;28;20773;-73
2022/08/31 05:07:38;;;;;;;4.68;2.45;;;13.50;99.90;;;;;;5006630;28;20252;-73
2022/08/31 05:10:06;;;;;;;2.97;2.45;;;13.70;99.90;;;;;;5012548;28;20205;-75
2022/08/31 05:12:33;;;;;;;2.83;2.10;;;13.80;99.90;;;;;;5014499;28;20736;-77
2022/08/31 05:15:01;;;;;;;12.60;2.10;;;13.90;99.90;;;;;;5012288;28;20227;-75
2022/08/31 05:17:28;;;;;;;3.75;2.03;;;14.10;99.90;;;;;;5019421;28;20202;-76
2022/08/31 05:19:58;;;;;;;3.58;1.80;;;14.20;99.90;;;;;;5020957;28;20192;-75
2022/08/31 05:22:25;;;;;;;8.50;1.80;;;14.30;99.90;;;;;;5011372;28;20300;-75
2022/08/31 05:24:54;;;;;;;4.07;2.13;;;14.20;99.90;;;;;;5017201;28;20761;-78
2022/08/31 05:27:21;;;;;;;2.33;2.13;;;14.30;99.90;;;;;;5008958;28;20208;-78
2022/08/31 05:29:49;;;;;;;2.00;1.70;;;14.40;99.90;;;;;;5017194;28;20656;-77
2022/08/31 05:32:16;;;;;;;2.97;1.95;;;14.40;99.90;;;;;;5025481;28;20224;-78
2022/08/31 05:34:43;;;;;;;36.65;6.50;;;14.60;99.90;;;;;;5036880;28;20221;-79
2022/08/31 05:37:10;;;;;;;9.13;3.15;;;15.20;99.90;;;;;;5021287;28;20288;-78
2022/08/31 05:39:37;;;;;;;5.22;2.58;;;16.20;99.90;;;;;;5016029;28;20224;-78
2022/08/31 05:42:07;;;;;;;7.53;3.20;;;17.40;99.90;;;;;;5008327;28;20257;-77
2022/08/31 05:44:34;;;;;;;6.77;4.03;;;18.50;99.90;;;;;;5015793;28;20475;-76
2022/08/31 05:47:01;;;;;;;4.13;2.70;;;19.40;99.90;;;;;;5010036;28;20444;-77
2022/08/31 05:49:28;;;;;;;4.00;3.47;;;20.10;99.50;;;;;;5014335;28;20453;-78
2022/08/31 05:51:56;;;;;;;4.40;2.80;;;20.70;97.50;;;;;;5018014;28;20511;-77
2022/08/31 05:54:23;;;;;;;5.93;2.87;;;21.50;95.40;;;;;;5020783;28;20549;-79
2022/08/31 05:56:54;;;;;;;4.27;2.80;;;22.00;93.20;;;;;;5009082;28;20562;-76
2022/08/31 05:59:23;;;;;;;4.57;2.50;;;22.20;92.40;;;;;;5015368;28;20444;-78
2022/08/31 06:01:49;;;;;;;6.43;2.30;;;22.90;91.60;;;;;;5014517;28;20479;-77
2022/08/31 06:04:18;;;;;;;3.10;2.00;;;23.50;90.50;;;;;;5019640;28;20883;-77
2022/08/31 06:06:45;;;;;;;4.17;2.10;;;24.20;88.50;;;;;;5015917;28;20532;-75
2022/08/31 06:09:12;;;;;;;2.70;1.53;;;24.60;85.70;;;;;;5015120;28;20469;-75
2022/08/31 06:11:40;;;;;;;4.40;1.97;;;25.00;84.50;;;;;;5013351;28;20522;-76
2022/08/31 06:14:09;;;;;;;3.67;1.73;;;25.40;82.60;;;;;;5021456;28;20563;-78
2022/08/31 06:16:42;;;;;;;5.90;1.77;;;26.10;80.70;;;;;;5014592;28;20472;-79
2022/08/31 06:19:09;;;;;;;4.10;1.67;;;26.60;78.70;;;;;;5020912;28;20502;-80
2022/08/31 06:21:40;;;;;;;3.83;1.80;;;26.80;77.00;;;;;;5020560;28;20491;-78
2022/08/31 06:24:09;;;;;;;4.30;2.40;;;26.90;76.50;;;;;;5022403;28;20563;-76
2022/08/31 06:26:51;;;;;;;5.13;3.03;;;27.40;75.20;;;;;;5020380;28;20467;-75
2022/08/31 06:29:19;;;;;;;3.63;1.70;;;27.60;74.20;;;;;;5018749;28;20451;-76
2022/08/31 06:31:50;;;;;;;3.27;1.33;;;28.10;72.30;;;;;;5024209;28;20506;-77
2022/08/31 06:34:20;;;;;;;2.13;1.03;;;28.20;71.80;;;;;;5027907;28;20535;-80
2022/08/31 06:36:48;;;;;;;4.03;1.60;;;28.70;71.00;;;;;;5026268;28;20458;-77
2022/08/31 06:39:16;;;;;;;1.63;1.33;;;28.50;70.00;;;;;;5019185;28;20491;-81
2022/08/31 06:41:43;;;;;;;3.83;1.43;;;28.80;69.60;;;;;;5015098;28;20825;-78
2022/08/31 06:44:12;;;;;;;2.63;2.03;;;29.10;68.30;;;;;;5012765;28;20468;-78
2022/08/31 06:46:43;;;;;;;1.80;1.10;;;29.00;68.30;;;;;;5014815;28;20517;-75
2022/08/31 06:49:12;;;;;;;2.50;1.53;;;29.40;67.80;;;;;;5017175;28;20945;-77
2022/08/31 06:51:39;;;;;;;2.90;1.40;;;29.60;67.00;;;;;;5013958;28;20446;-80
2022/08/31 06:54:22;;;;;;;5.60;2.03;;;29.10;66.80;;;;;;5014186;28;20542;-80
2022/08/31 06:57:13;;;;;;;2.93;1.50;;;28.90;67.90;;;;;;5012640;28;20954;-77
2022/08/31 06:59:52;;;;;;;5.03;2.00;;;29.50;67.40;;;;;;5015925;28;20486;-79
2022/08/31 07:02:29;;;;;;;4.83;1.33;;;29.60;65.90;;;;;;5022840;28;20486;-82
2022/08/31 07:04:58;;;;;;;2.70;1.60;;;29.70;66.20;;;;;;5017998;28;20518;-80
2022/08/31 07:07:25;;;;;;;1.70;1.23;;;30.00;65.30;;;;;;5015663;28;20531;-81
2022/08/31 07:09:52;;;;;;;4.40;1.03;;;30.10;65.10;;;;;;5021716;28;20439;-85
2022/08/31 07:12:19;;;;;;;2.25;1.40;;;30.20;64.80;;;;;;5019176;28;20439;-76
2022/08/31 07:14:46;;;;;;;4.47;1.50;;;30.80;64.10;;;;;;5011570;28;20220;-76
2022/08/31 07:17:13;;;;;;;3.50;1.03;;;31.50;62.40;;;;;;5022338;28;20442;-78
2022/08/31 07:19:40;;;;;;;4.67;1.40;;;31.30;61.60;;;;;;5023752;28;20464;-77
2022/08/31 07:22:09;;;;;;;2.27;1.30;;;30.90;62.60;;;;;;5030457;28;20476;-78
2022/08/31 07:24:36;;;;;;;1.70;1.30;;;30.80;63.20;;;;;;5015233;28;20832;-77
2022/08/31 07:27:08;;;;;;;7.43;2.50;;;30.80;63.30;;;;;;5015752;28;20450;-78
2022/08/31 07:29:39;;;;;;;3.30;1.00;;;31.30;63.10;;;;;;5020965;28;20474;-78
2022/08/31 07:32:07;;;;;;;2.47;1.17;;;31.40;61.30;;;;;;5009291;28;20436;-80
2022/08/31 07:34:35;;;;;;;3.33;1.60;;;31.60;60.80;;;;;;5006005;28;20457;-80
2022/08/31 07:42:37;;;;;;;4.20;1.33;;;32.30;59.60;;;;;;5018400;28;20478;-79
2022/08/31 07:45:06;;;;;;;2.70;1.10;;;32.20;59.50;;;;;;5014563;28;20479;-79
2022/08/31 07:47:34;;;;;;;1.50;0.80;;;32.00;59.90;;;;;;5016143;28;20448;-79
2022/08/31 07:50:01;;;;;;;1.80;0.83;;;32.50;59.20;;;;;;5009448;28;20488;-79
2022/08/31 07:52:29;;;;;;;5.50;1.37;;;32.30;59.30;;;;;;5012943;28;20527;-79
2022/08/31 07:55:08;;;;;;;3.10;1.20;;;32.70;59.40;;;;;;5006314;28;20836;-83
2022/08/31 07:57:41;;;;;;;1.60;1.10;;;32.80;58.90;;;;;;5015532;28;20782;-79
2022/08/31 08:00:10;;;;;;;2.37;1.53;;;33.30;58.20;;;;;;5013975;28;20451;-78
2022/08/31 08:02:38;;;;;;;1.77;1.07;;;33.60;57.30;;;;;;5015598;28;20491;-80
2022/08/31 08:05:07;;;;;;;6.47;1.20;;;33.70;57.10;;;;;;5018890;28;20499;-82
2022/08/31 08:07:36;;;;;;;3.43;1.30;;;33.00;57.20;;;;;;5014223;28;20455;-81
2022/08/31 08:10:07;;;;;;;2.90;0.90;;;32.20;58.50;;;;;;5018700;28;20455;-81
2022/08/31 08:12:35;;;;;;;1.60;1.23;;;32.40;58.20;;;;;;5018354;28;20480;-81
2022/08/31 08:15:04;;;;;;;2.20;1.00;;;32.00;57.70;;;;;;5017540;28;21008;-81
2022/08/31 08:17:32;;;;;;;2.43;1.10;;;31.20;58.70;;;;;;5022020;28;20607;-77
2022/08/31 08:19:59;;;;;;;4.73;1.00;;;30.90;60.00;;;;;;5024605;28;20460;-78
2022/08/31 08:22:26;;;;;;;1.77;0.80;;;30.60;60.40;;;;;;5019273;28;21035;-78
2022/08/31 08:24:55;;;;;;;2.00;1.00;;;31.00;60.20;;;;;;5013581;28;21788;-82
2022/08/31 08:27:24;;;;;;;13.03;2.80;;;31.30;59.60;;;;;;5014667;28;20464;-83
2022/08/31 08:29:51;;;;;;;1.80;1.00;;;31.70;58.90;;;;;;5014754;28;20851;-82
2022/08/31 08:32:19;;;;;;;3.00;1.00;;;31.60;58.30;;;;;;5014354;28;20547;-82
2022/08/31 08:34:46;;;;;;;2.73;1.20;;;32.00;58.00;;;;;;5015419;28;20989;-82
2022/08/31 08:37:13;;;;;;;3.90;1.40;;;32.50;56.60;;;;;;5014092;28;20961;-82
2022/08/31 08:39:42;;;;;;;1.30;0.90;;;32.40;56.00;;;;;;5020869;28;20448;-81
2022/08/31 08:42:13;;;;;;;2.60;1.37;;;32.60;55.90;;;;;;5018029;28;20514;-81
2022/08/31 08:44:44;;;;;;;1.47;0.90;;;32.50;55.80;;;;;;5014377;28;20575;-82
2022/08/31 08:47:14;;;;;;;2.00;1.90;;;32.00;56.30;;;;;;5018430;28;20536;-83
2022/08/31 08:49:49;;;;;;;4.10;1.33;;;32.70;55.60;;;;;;5026593;28;20921;-81
2022/08/31 08:52:23;;;;;;;2.50;1.07;;;32.90;55.20;;;;;;5018292;28;20447;-82
2022/08/31 08:54:52;;;;;;;5.13;0.83;;;33.00;54.60;;;;;;5028518;28;20459;-82
2022/08/31 08:57:23;;;;;;;1.70;0.80;;;33.10;54.30;;;;;;5024343;28;20440;-80
2022/08/31 08:59:56;;;;;;;1.40;0.80;;;32.90;53.60;;;;;;5008243;28;20476;-81
2022/08/31 09:02:34;;;;;;;2.47;1.33;;;32.90;53.70;;;;;;5011936;28;20828;-82
2022/08/31 09:05:20;;;;;;;3.23;1.60;;;32.00;53.90;;;;;;5015076;28;20884;-81
2022/08/31 09:08:22;;;;;;;1.63;0.80;;;31.60;55.00;;;;;;5021287;28;20436;-81
2022/08/31 09:11:01;;;;;;;1.30;0.90;;;31.60;54.80;;;;;;5019300;28;20446;-81
2022/08/31 09:13:39;;;;;;;3.10;1.27;;;31.10;55.70;;;;;;5038063;28;20471;-81
2022/08/31 09:16:20;;;;;;;2.57;0.90;;;30.80;55.90;;;;;;5024855;28;20443;-81
2022/08/31 09:18:51;;;;;;;2.50;1.33;;;31.00;55.90;;;;;;5017050;28;20552;-82
2022/08/31 09:21:22;;;;;;;1.43;0.80;;;31.20;55.40;;;;;;5017521;28;20440;-80
2022/08/31 09:24:00;;;;;;;3.77;1.00;;;31.60;54.00;;;;;;5016736;28;20483;-81
2022/08/31 09:26:30;;;;;;;1.40;0.83;;;31.80;53.70;;;;;;5017240;28;20456;-81
2022/08/31 09:28:57;;;;;;;1.20;0.70;;;31.90;53.40;;;;;;5015871;28;20440;-77
2022/08/31 09:31:33;;;;;;;1.00;0.60;;;32.00;52.70;;;;;;5016037;28;20574;-76
2022/08/31 09:34:01;;;;;;;1.77;0.73;;;31.20;53.30;;;;;;5031453;28;20549;-75
2022/08/31 09:36:33;;;;;;;3.03;0.90;;;30.80;54.40;;;;;;5018427;28;20816;-75
2022/08/31 09:39:15;;;;;;;2.90;1.50;;;30.60;53.90;;;;;;5012114;28;20535;-76
2022/08/31 09:41:42;;;;;;;4.60;0.80;;;30.40;54.50;;;;;;5015364;28;20522;-76
2022/08/31 09:44:30;;;;;;;2.10;1.00;;;30.30;55.20;;;;;;5014919;28;20920;-75
2022/08/31 09:47:02;;;;;;;2.60;1.00;;;29.70;55.10;;;;;;5007512;28;20432;-83
2022/08/31 09:49:35;;;;;;;1.40;0.70;;;29.50;56.40;;;;;;5022086;28;20450;-82
2022/08/31 09:55:11;;;;;;;6.93;0.87;;;29.60;56.10;;;;;;5026606;28;20873;-81
2022/08/31 09:55:12;;;;;;;1.57;0.80;;;30.10;55.10;;;;;;5014959;28;20995;-82
2022/08/31 09:57:45;;;;;;;1.80;1.10;;;30.70;54.00;;;;;;5017144;28;20551;-78
2022/08/31 10:00:13;;;;;;;5.03;1.10;;;30.00;54.30;;;;;;5016535;28;20471;-78
2022/08/31 10:02:43;;;;;;;2.33;1.87;;;29.60;54.80;;;;;;5016041;28;20479;-78
2022/08/31 10:05:31;;;;;;;3.27;1.13;;;29.70;54.80;;;;;;5013602;28;20579;-78
2022/08/31 10:08:06;;;;;;;1.40;0.90;;;29.90;55.20;;;;;;5013370;28;20543;-79
2022/08/31 10:10:36;;;;;;;3.00;1.07;;;30.60;54.50;;;;;;5014885;28;20451;-77
2022/08/31 10:13:09;;;;;;;5.37;0.80;;;31.10;53.60;;;;;;5017266;28;20452;-78
2022/08/31 10:15:42;;;;;;;3.13;0.80;;;31.20;52.50;;;;;;5021514;28;20451;-78
2022/08/31 10:18:19;;;;;;;2.80;0.87;;;30.90;52.70;;;;;;5009994;28;20445;-78
2022/08/31 10:20:55;;;;;;;2.03;0.90;;;30.70;52.00;;;;;;5008722;28;20450;-78
2022/08/31 10:23:33;;;;;;;2.27;1.03;;;30.50;52.80;;;;;;5013936;28;20985;-79
2022/08/31 10:26:06;;;;;;;5.30;1.00;;;30.30;53.60;;;;;;5002506;28;20490;-79
2022/08/31 10:28:39;;;;;;;2.60;0.97;;;29.90;53.90;;;;;;5014995;28;20531;-79
2022/08/31 10:31:12;;;;;;;1.97;0.80;;;29.50;54.10;;;;;;5016024;28;20901;-79
2022/08/31 10:36:37;;;;;;;1.77;0.80;;;29.50;55.20;;;;;;5016004;28;20419;-80
2022/08/31 10:39:16;;;;;;;2.77;1.10;;;29.20;54.40;;;;;;5013988;28;20486;-81
2022/08/31 10:41:48;;;;;;;1.67;1.03;;;28.50;55.10;;;;;;5019752;28;20463;-83
2022/08/31 10:44:23;;;;;;;2.10;0.70;;;27.60;55.30;;;;;;5024436;28;20522;-84
2022/08/31 10:46:53;;;;;;;1.57;1.00;;;27.00;56.30;;;;;;5018625;28;20490;-84
2022/08/31 10:49:22;;;;;;;1.57;0.80;;;26.50;56.50;;;;;;5019648;28;20458;-82
2022/08/31 10:52:01;;;;;;;1.30;0.87;;;25.90;57.70;;;;;;5019963;28;20534;-85
2022/08/31 10:54:43;;;;;;;1.27;0.90;;;25.40;58.50;;;;;;5040968;28;20460;-83
2022/08/31 10:57:28;;;;;;;2.40;0.80;;;25.40;58.10;;;;;;5032717;28;20469;-84
2022/08/31 11:00:05;;;;;;;1.23;0.80;;;25.50;58.00;;;;;;5013932;28;20461;-84
2022/08/31 11:02:45;;;;;;;1.60;1.00;;;25.60;58.50;;;;;;5032751;28;20493;-85
2022/08/31 11:05:32;;;;;;;1.30;0.80;;;25.50;57.70;;;;;;5023325;28;20483;-84
2022/08/31 11:08:15;;;;;;;1.30;0.73;;;25.10;57.80;;;;;;5004335;28;20484;-84
2022/08/31 11:10:48;;;;;;;1.63;0.70;;;25.00;58.60;;;;;;5017065;28;20432;-84
2022/08/31 11:13:38;;;;;;;1.00;0.73;;;24.70;59.40;;;;;;5032636;28;20475;-84
2022/08/31 11:16:32;;;;;;;1.30;0.90;;;24.80;60.40;;;;;;5035566;28;20448;-83
2022/08/31 11:19:29;;;;;;;1.63;1.43;;;24.70;60.50;;;;;;5023199;28;20537;-84
2022/08/31 11:22:36;;;;;;;3.30;0.70;;;24.60;61.00;;;;;;5007728;28;20500;-86
2022/08/31 11:25:23;;;;;;;1.97;0.90;;;24.80;61.20;;;;;;5014142;28;20448;-84
2022/08/31 11:27:55;;;;;;;3.70;1.30;;;24.70;60.40;;;;;;5029267;28;20810;-85
2022/08/31 11:30:25;;;;;;;2.10;1.00;;;24.60;61.00;;;;;;5027578;28;20521;-84
2022/08/31 11:32:58;;;;;;;2.27;1.10;;;24.80;60.10;;;;;;5018345;28;20498;-85
2022/08/31 11:35:56;;;;;;;1.80;1.17;;;25.00;60.10;;;;;;5016949;28;20451;-84
2022/08/31 11:38:46;;;;;;;2.00;0.80;;;25.10;60.40;;;;;;5040608;28;20528;-83
2022/08/31 11:41:35;;;;;;;2.77;1.10;;;24.90;60.10;;;;;;5026641;28;20485;-83
2022/08/31 11:44:04;;;;;;;2.13;1.00;;;25.10;59.70;;;;;;5028252;28;20490;-85
2022/08/31 11:47:03;;;;;;;1.40;0.80;;;25.00;58.80;;;;;;5025526;28;20452;-84
2022/08/31 11:49:45;;;;;;;1.10;0.70;;;24.70;59.10;;;;;;5024922;28;20448;-85
2022/08/31 11:52:33;;;;;;;1.33;0.83;;;24.70;59.20;;;;;;5028899;28;20448;-83
2022/08/31 11:55:17;;;;;;;1.43;0.80;;;24.60;59.70;;;;;;5023588;28;20478;-85
2022/08/31 11:58:32;;;;;;;2.10;1.20;;;24.70;60.00;;;;;;5031412;28;20989;-86
2022/08/31 12:01:04;;;;;;;1.40;0.90;;;24.60;59.70;;;;;;4967903;28;20446;-86
2022/08/31 12:03:43;;;;;;;2.83;0.97;;;24.50;59.60;;;;;;4967199;28;20490;-87
2022/08/31 12:06:32;;;;;;;3.40;1.17;;;24.20;59.90;;;;;;5012777;28;20451;-86
2022/08/31 12:09:21;;;;;;;2.30;1.10;;;24.20;60.50;;;;;;5040475;28;20524;-85
2022/08/31 12:11:55;;;;;;;1.30;0.70;;;24.30;60.40;;;;;;5021724;28;20942;-85
2022/08/31 12:14:32;;;;;;;2.00;1.17;;;24.30;60.50;;;;;;5015968;28;20466;-86
2022/08/31 12:17:08;;;;;;;1.20;0.90;;;24.20;60.90;;;;;;5024446;28;20532;-86
2022/08/31 12:20:05;;;;;;;2.57;0.70;;;24.20;60.70;;;;;;5033594;28;20432;-84
2022/08/31 12:26:06;;;;;;;1.77;0.90;;;24.20;61.20;;;;;;5015878;28;20961;-85
2022/08/31 12:28:57;;;;;;;2.40;0.80;;;24.20;60.50;;;;;;5017878;28;20448;-84
2022/08/31 12:31:24;;;;;;;1.30;1.00;;;24.20;60.10;;;;;;5018050;28;20464;-86
2022/08/31 12:33:59;;;;;;;1.30;0.80;;;24.30;60.50;;;;;;5017499;28;20468;-84
2022/08/31 12:36:29;;;;;;;2.90;1.30;;;24.40;60.20;;;;;;5019651;28;20439;-86
2022/08/31 12:39:08;;;;;;;1.93;1.00;;;24.40;60.80;;;;;;5017617;28;20445;-84
2022/08/31 12:41:38;;;;;;;1.73;0.77;;;24.40;61.00;;;;;;5018439;28;20466;-86
2022/08/31 12:44:07;;;;;;;2.60;1.13;;;24.50;60.20;;;;;;5020076;28;20515;-85
2022/08/31 12:46:53;;;;;;;3.37;1.30;;;24.30;59.50;;;;;;5023764;28;20492;-84
2022/08/31 12:49:38;;;;;;;1.77;0.90;;;24.20;59.90;;;;;;5011385;28;20427;-85
2022/08/31 12:52:19;;;;;;;2.30;1.17;;;24.20;59.90;;;;;;5024955;28;20444;-86
2022/08/31 12:55:08;;;;;;;2.03;1.00;;;24.20;57.90;;;;;;5034190;28;20555;-86
2022/08/31 12:57:48;;;;;;;10.90;1.10;;;24.20;58.90;;;;;;5033153;28;20439;-85
2022/08/31 13:00:22;;;;;;;1.47;1.10;;;24.30;59.90;;;;;;5034958;28;20474;-84
2022/08/31 13:02:53;;;;;;;2.40;1.10;;;24.40;60.90;;;;;;5033006;28;20459;-85
2022/08/31 13:05:22;;;;;;;3.37;1.20;;;24.30;61.50;;;;;;5024470;28;20490;-85
2022/08/31 13:07:50;;;;;;;3.13;1.30;;;24.50;61.30;;;;;;5026371;28;20458;-86
2022/08/31 13:10:27;;;;;;;1.60;1.00;;;24.60;60.60;;;;;;5024920;28;20459;-86
2022/08/31 13:12:56;;;;;;;9.53;1.67;;;24.40;60.20;;;;;;5031792;28;20446;-83
2022/08/31 13:15:27;;;;;;;1.40;0.80;;;24.30;59.80;;;;;;5028024;28;20511;-86
2022/08/31 13:17:55;;;;;;;3.10;0.80;;;24.40;60.10;;;;;;5028349;28;20440;-86
2022/08/31 13:20:42;;;;;;;1.50;0.80;;;24.30;60.70;;;;;;5054887;28;20427;-86
2022/08/31 13:23:12;;;;;;;2.33;0.83;;;24.40;60.30;;;;;;5039244;28;20494;-84
2022/08/31 13:25:39;;;;;;;1.60;1.03;;;24.40;60.40;;;;;;5046777;28;20435;-84